Time;durP1;ratioP1;P1;durP2;ratioP2;P2;SDS_P1;SDS_P2;PMS_P1;PMS_P2;Temp;Humidity;BMP_temperature;BMP_pressure;BME280_temperature;BME280_humidity;BME280_pressure;Samples;Min_cycle;Max_cycle;Signal;HPM_P1;HPM_P2
2023/03/05 00:01:27;;;;;;;15.68;4.22;;;;;;;5.50;98.25;102150.53;5112650;28;20071;-62
2023/03/05 00:03:55;;;;;;;14.38;4.18;;;;;;;5.49;98.37;102148.06;5076199;28;20042;-63
2023/03/05 00:06:25;;;;;;;15.43;4.00;;;;;;;5.45;98.12;102147.59;5092832;28;20066;-64
2023/03/05 00:08:55;;;;;;;13.82;3.92;;;;;;;5.44;97.99;102145.13;5091465;28;20054;-62
2023/03/05 00:11:24;;;;;;;15.13;4.63;;;;;;;5.43;98.30;102146.97;5104973;28;20056;-63
2023/03/05 00:13:52;;;;;;;12.60;3.85;;;;;;;5.43;98.20;102144.25;5092903;28;20048;-62
2023/03/05 00:16:20;;;;;;;10.85;4.15;;;;;;;5.44;98.06;102140.53;5092301;28;20048;-62
2023/03/05 00:18:48;;;;;;;14.30;3.85;;;;;;;5.44;97.89;102135.13;5091301;28;20048;-62
2023/03/05 00:21:23;;;;;;;12.02;3.65;;;;;;;5.42;97.63;102137.19;5104146;28;20063;-62
2023/03/05 00:23:52;;;;;;;13.45;3.85;;;;;;;5.43;97.72;102132.63;5095514;28;20047;-64
2023/03/05 00:26:21;;;;;;;14.35;4.20;;;;;;;5.43;97.63;102129.91;5078511;28;20046;-61
2023/03/05 00:28:51;;;;;;;14.68;3.88;;;;;;;5.43;97.59;102135.31;5094586;28;20412;-62
2023/03/05 00:31:29;;;;;;;14.98;4.00;;;;;;;5.43;97.64;102132.63;5103380;27;20048;-64
2023/03/05 00:34:06;;;;;;;10.60;3.58;;;;;;;5.42;97.57;102131.78;5115383;28;20046;-59
2023/03/05 00:36:38;;;;;;;12.77;3.70;;;;;;;5.43;97.44;102130.75;5115848;28;20045;-62
2023/03/05 00:39:05;;;;;;;14.85;4.60;;;;;;;5.42;97.65;102126.38;5098432;28;20065;-61
2023/03/05 00:41:33;;;;;;;14.38;3.83;;;;;;;5.41;97.46;102130.16;5113033;27;20051;-63
2023/03/05 00:44:00;;;;;;;12.05;4.03;;;;;;;5.41;97.62;102118.47;5115287;28;20538;-63
2023/03/05 00:46:28;;;;;;;15.90;4.30;;;;;;;5.42;97.35;102126.38;5081169;28;20053;-62
2023/03/05 00:48:56;;;;;;;12.20;3.92;;;;;;;5.42;97.25;102112.06;5116311;28;20059;-60
2023/03/05 00:51:25;;;;;;;12.75;3.92;;;;;;;5.42;97.31;102115.59;5113665;28;20047;-63
2023/03/05 00:53:53;;;;;;;13.55;3.85;;;;;;;5.43;97.34;102111.84;5115873;28;20048;-61
2023/03/05 00:56:20;;;;;;;12.15;3.47;;;;;;;5.42;97.28;102104.78;5115972;28;20047;-61
2023/03/05 00:58:48;;;;;;;14.75;3.72;;;;;;;5.40;97.28;102106.84;5115809;28;20131;-64
2023/03/05 01:01:16;;;;;;;12.05;3.75;;;;;;;5.39;97.18;102101.63;5107383;28;20044;-63
2023/03/05 01:03:44;;;;;;;11.95;3.78;;;;;;;5.39;97.31;102098.91;5095283;28;20078;-65
2023/03/05 01:06:13;;;;;;;12.48;3.50;;;;;;;5.38;97.01;102091.84;5077442;28;20408;-64
2023/03/05 01:08:43;;;;;;;12.40;3.40;;;;;;;5.36;97.16;102097.44;5108365;27;20051;-61
2023/03/05 01:11:11;;;;;;;12.45;3.65;;;;;;;5.36;97.28;102092.06;5104925;28;20389;-62
2023/03/05 01:13:39;;;;;;;13.90;3.58;;;;;;;5.35;97.25;102095.81;5096537;27;20066;-63
2023/03/05 01:16:07;;;;;;;11.82;3.78;;;;;;;5.34;97.37;102088.75;5095206;28;20123;-64
2023/03/05 01:18:37;;;;;;;13.82;4.07;;;;;;;5.33;97.36;102084.34;5115176;28;20059;-64
2023/03/05 01:21:06;;;;;;;12.20;4.07;;;;;;;5.34;97.66;102086.03;5112236;28;20040;-64
2023/03/05 01:23:36;;;;;;;11.32;3.55;;;;;;;5.33;97.53;102087.06;5093750;28;20049;-62
2023/03/05 01:26:04;;;;;;;14.85;4.10;;;;;;;5.33;97.71;102084.34;5115909;28;20450;-62
2023/03/05 01:28:32;;;;;;;13.02;4.05;;;;;;;5.32;97.97;102077.28;5080594;28;20048;-62
2023/03/05 01:30:59;;;;;;;12.38;4.03;;;;;;;5.34;98.23;102075.22;5108916;28;20040;-63
2023/03/05 01:33:27;;;;;;;14.30;4.90;;;;;;;5.33;98.06;102070.84;5076557;28;20051;-61
2023/03/05 01:35:55;;;;;;;13.55;4.28;;;;;;;5.34;98.21;102072.53;5093529;28;20098;-62
2023/03/05 01:38:22;;;;;;;13.98;3.80;;;;;;;5.31;98.43;102070.22;5094315;28;20560;-63
2023/03/05 01:40:50;;;;;;;14.18;4.53;;;;;;;5.29;98.42;102058.75;5095850;28;20040;-61
2023/03/05 01:43:27;;;;;;;13.25;3.97;;;;;;;5.28;98.62;102052.53;5101602;27;20055;-61
2023/03/05 01:46:18;;;;;;;15.73;4.50;;;;;;;5.28;98.93;102049.00;5114831;27;20043;-62
2023/03/05 01:49:11;;;;;;;15.15;4.60;;;;;;;5.27;98.98;102042.78;5113969;28;20100;-62
2023/03/05 01:52:04;;;;;;;10.25;3.58;;;;;;;5.26;99.00;102040.25;5086894;28;20415;-62
2023/03/05 01:54:56;;;;;;;13.57;4.30;;;;;;;5.27;99.07;102041.94;5109097;27;20044;-62
2023/03/05 01:57:42;;;;;;;13.95;4.40;;;;;;;5.27;98.84;102036.53;5113643;28;20047;-62
2023/03/05 02:00:17;;;;;;;;;;;;;;;5.27;98.98;102036.53;5112737;28;20089;-64
2023/03/05 02:03:07;;;;;;;15.77;4.05;;;;;;;5.26;98.96;102029.44;5112953;27;19957;-64
2023/03/05 02:05:38;;;;;;;13.70;4.00;;;;;;;5.25;99.42;102025.91;5076933;28;20349;-63
2023/03/05 02:08:08;;;;;;;13.50;3.85;;;;;;;5.25;99.28;102017.81;5094255;28;20048;-62
2023/03/05 02:10:44;;;;;;;13.73;4.30;;;;;;;5.25;99.36;102011.59;5094533;28;20051;-62
2023/03/05 02:13:22;;;;;;;;;;;;;;;5.25;99.35;102012.41;5084514;28;20043;-61
2023/03/05 02:15:51;;;;;;;14.95;4.68;;;;;;;5.21;99.78;102002.22;5100031;28;19992;-61
2023/03/05 02:18:20;;;;;;;15.70;5.43;;;;;;;5.23;99.84;102005.53;5095341;28;20036;-61
2023/03/05 02:20:55;;;;;;;20.73;7.75;;;;;;;5.23;100.00;102009.06;5076456;28;20498;-62
2023/03/05 02:23:25;;;;;;;13.82;4.60;;;;;;;5.23;100.00;102000.97;5092733;28;20621;-63
2023/03/05 02:25:53;;;;;;;16.33;4.93;;;;;;;5.24;100.00;101993.69;5098673;27;20043;-64
2023/03/05 02:28:22;;;;;;;16.00;4.63;;;;;;;5.25;100.00;101988.09;5096339;28;20409;-62
2023/03/05 02:30:50;;;;;;;11.50;3.92;;;;;;;5.27;100.00;101982.50;5113238;28;20067;-62
2023/03/05 02:33:19;;;;;;;13.80;4.13;;;;;;;5.27;100.00;101974.41;5114807;28;20115;-62
2023/03/05 02:35:47;;;;;;;10.15;3.60;;;;;;;5.29;100.00;101969.59;5085274;28;20044;-62
2023/03/05 02:38:17;;;;;;;12.25;4.00;;;;;;;5.29;100.00;101966.88;5094345;28;20044;-62
2023/03/05 02:40:44;;;;;;;12.32;4.03;;;;;;;5.29;100.00;101961.47;5093514;28;20127;-62
2023/03/05 02:43:13;;;;;;;13.27;4.00;;;;;;;5.29;100.00;101961.47;5074841;28;20098;-62
2023/03/05 02:45:41;;;;;;;14.82;4.40;;;;;;;5.29;100.00;101947.97;5096760;27;20048;-64
2023/03/05 02:48:09;;;;;;;10.57;4.05;;;;;;;5.28;100.00;101957.94;5093352;28;20046;-63
2023/03/05 02:50:38;;;;;;;13.07;4.38;;;;;;;5.27;100.00;101950.91;5075932;28;20052;-62
2023/03/05 02:53:06;;;;;;;12.75;3.50;;;;;;;5.27;100.00;101953.59;5092161;28;20051;-64
2023/03/05 02:55:34;;;;;;;13.75;3.95;;;;;;;5.27;100.00;101950.06;5110402;27;20465;-64
2023/03/05 02:58:02;;;;;;;12.27;3.78;;;;;;;5.28;100.00;101947.16;5134296;27;20043;-62
2023/03/05 03:00:29;;;;;;;12.07;4.10;;;;;;;5.29;100.00;101945.28;5132204;27;20047;-62
2023/03/05 03:02:57;;;;;;;11.27;4.03;;;;;;;5.30;100.00;101941.53;5091068;28;20113;-63
2023/03/05 03:05:25;;;;;;;16.27;4.45;;;;;;;5.31;100.00;101935.09;5093467;28;20048;-63
2023/03/05 03:07:53;;;;;;;10.75;3.65;;;;;;;5.30;100.00;101928.84;5106676;28;20047;-64
2023/03/05 03:10:20;;;;;;;13.95;4.30;;;;;;;5.28;99.94;101930.94;5113341;28;20055;-63
2023/03/05 03:12:48;;;;;;;11.55;3.90;;;;;;;5.27;100.00;101923.06;5112394;28;20043;-62
2023/03/05 03:15:17;;;;;;;10.55;3.60;;;;;;;5.26;100.00;101924.06;5111703;28;20047;-63
2023/03/05 03:17:45;;;;;;;12.63;3.63;;;;;;;5.24;100.00;101927.00;5111287;28;20150;-62
2023/03/05 03:20:15;;;;;;;13.98;3.80;;;;;;;5.23;100.00;101928.03;5110818;28;20498;-65
2023/03/05 03:22:44;;;;;;;10.65;3.45;;;;;;;5.20;100.00;101922.22;5110234;28;20020;-63
2023/03/05 03:25:15;;;;;;;12.60;4.20;;;;;;;5.18;100.00;101919.69;5111866;28;20067;-62
2023/03/05 03:27:43;;;;;;;14.57;4.15;;;;;;;5.18;100.00;101913.47;5113350;28;20055;-63
2023/03/05 03:30:12;;;;;;;12.50;4.15;;;;;;;5.18;100.00;101919.69;5118098;28;20044;-62
2023/03/05 03:32:39;;;;;;;14.73;3.70;;;;;;;5.17;100.00;101909.94;5125432;28;20057;-63
2023/03/05 03:35:09;;;;;;;9.48;3.42;;;;;;;5.14;100.00;101907.63;5105464;28;20044;-64
2023/03/05 03:37:37;;;;;;;8.85;3.38;;;;;;;5.12;100.00;101910.56;5111457;28;20070;-62
2023/03/05 03:40:06;;;;;;;13.13;3.55;;;;;;;5.12;100.00;101905.16;5106914;28;20048;-63
2023/03/05 03:42:34;;;;;;;17.35;3.92;;;;;;;5.13;100.00;101901.41;5092281;28;20060;-62
2023/03/05 03:45:02;;;;;;;13.48;4.03;;;;;;;5.11;100.00;101900.78;5093845;28;20044;-64
2023/03/05 03:47:30;;;;;;;12.75;3.70;;;;;;;5.09;100.00;101883.94;5093636;28;20040;-62
2023/03/05 03:49:58;;;;;;;14.00;3.97;;;;;;;5.08;100.00;101898.50;5109001;28;20039;-61
2023/03/05 03:52:25;;;;;;;8.35;3.08;;;;;;;5.08;100.00;101892.25;5108715;28;20063;-62
2023/03/05 03:55:00;;;;;;;13.38;3.75;;;;;;;5.08;100.00;101895.78;5092073;28;20044;-62
2023/03/05 03:57:29;;;;;;;13.32;3.55;;;;;;;5.08;100.00;101903.88;5097506;28;20044;-62
2023/03/05 03:59:56;;;;;;;9.63;3.47;;;;;;;5.06;100.00;101903.25;5084102;28;20043;-63
2023/03/05 04:02:24;;;;;;;9.50;3.33;;;;;;;5.05;100.00;101890.81;5099812;28;20046;-64
2023/03/05 04:04:52;;;;;;;15.13;4.00;;;;;;;5.05;100.00;101890.81;5101317;28;20387;-63
2023/03/05 04:07:20;;;;;;;11.05;3.45;;;;;;;5.03;100.00;101890.16;5097117;28;20510;-64
2023/03/05 04:09:48;;;;;;;11.65;3.83;;;;;;;5.03;100.00;101878.53;5102242;27;20060;-63
2023/03/05 04:12:19;;;;;;;11.38;3.92;;;;;;;5.02;100.00;101880.38;5097123;28;20150;-63
2023/03/05 04:14:47;;;;;;;14.48;4.03;;;;;;;5.01;100.00;101867.94;5095944;28;20048;-63
2023/03/05 04:17:15;;;;;;;13.63;4.43;;;;;;;5.01;100.00;101867.09;5107057;28;20089;-63
2023/03/05 04:19:43;;;;;;;10.13;3.30;;;;;;;5.01;100.00;101861.69;5116043;28;20048;-63
2023/03/05 04:22:12;;;;;;;12.88;3.83;;;;;;;4.99;100.00;101861.91;5115687;27;20140;-63
2023/03/05 04:24:40;;;;;;;12.50;3.58;;;;;;;5.00;100.00;101858.16;5117253;28;20077;-62
2023/03/05 04:27:08;;;;;;;15.27;4.00;;;;;;;4.99;100.00;101858.38;5114506;28;20043;-62
2023/03/05 04:29:36;;;;;;;9.65;3.40;;;;;;;4.98;100.00;101860.25;5115856;28;20078;-63
2023/03/05 04:32:05;;;;;;;10.60;4.07;;;;;;;4.98;100.00;101854.00;5116313;27;20127;-63
2023/03/05 04:34:34;;;;;;;10.88;3.20;;;;;;;4.95;100.00;101855.22;5116843;28;20055;-59
2023/03/05 04:37:01;;;;;;;10.82;3.30;;;;;;;4.94;100.00;101853.59;5103536;28;20127;-61
2023/03/05 04:39:29;;;;;;;12.50;3.30;;;;;;;4.92;100.00;101847.56;5095755;28;20071;-63
2023/03/05 04:41:57;;;;;;;10.93;3.60;;;;;;;4.92;100.00;101850.25;5103532;27;20522;-65
2023/03/05 04:44:24;;;;;;;9.98;3.20;;;;;;;4.92;100.00;101855.66;5116624;28;20048;-63
2023/03/05 04:46:52;;;;;;;9.13;3.50;;;;;;;4.91;100.00;101854.81;5114221;28;20043;-63
2023/03/05 04:49:20;;;;;;;12.77;4.03;;;;;;;4.91;100.00;101854.00;5115502;28;20043;-63
2023/03/05 04:51:48;;;;;;;9.48;3.10;;;;;;;4.92;100.00;101850.25;5116689;27;20059;-63
2023/03/05 04:54:16;;;;;;;12.20;3.72;;;;;;;4.89;100.00;101843.41;5116698;28;20039;-61
2023/03/05 04:56:43;;;;;;;12.40;3.38;;;;;;;4.91;100.00;101843.19;5106417;28;20123;-64
2023/03/05 04:59:11;;;;;;;12.23;3.47;;;;;;;4.90;100.00;101828.00;5115316;28;20476;-65
2023/03/05 05:01:39;;;;;;;11.38;3.30;;;;;;;4.90;100.00;101834.25;5113532;27;20047;-63
2023/03/05 05:04:06;;;;;;;13.25;3.90;;;;;;;4.91;100.00;101824.28;5106534;27;20044;-63
2023/03/05 05:06:34;;;;;;;12.32;4.00;;;;;;;4.93;100.00;101824.94;5096220;28;20051;-63
2023/03/05 05:09:02;;;;;;;13.60;3.67;;;;;;;4.94;100.00;101826.56;5095561;28;20050;-62
2023/03/05 05:11:31;;;;;;;12.90;3.42;;;;;;;4.94;100.00;101825.75;5095568;28;20043;-62
2023/03/05 05:13:59;;;;;;;12.20;3.90;;;;;;;4.93;100.00;101816.81;5111715;27;20047;-62
2023/03/05 05:16:27;;;;;;;10.95;3.72;;;;;;;4.94;100.00;101814.94;5104956;28;20397;-61
2023/03/05 05:18:54;;;;;;;11.38;3.55;;;;;;;4.96;100.00;101813.69;5094097;28;20557;-62
2023/03/05 05:21:22;;;;;;;12.35;3.63;;;;;;;4.97;100.00;101809.94;5095502;28;20499;-64
2023/03/05 05:23:50;;;;;;;11.43;3.75;;;;;;;4.96;100.00;101808.31;5104765;27;20119;-64
2023/03/05 05:26:17;;;;;;;11.85;3.78;;;;;;;4.96;100.00;101804.78;5113052;28;20043;-61
2023/03/05 05:28:45;;;;;;;11.70;3.60;;;;;;;4.95;100.00;101806.63;5113861;27;20048;-64
2023/03/05 05:31:15;;;;;;;11.55;3.72;;;;;;;4.95;100.00;101806.63;5097147;28;20044;-63
2023/03/05 05:33:42;;;;;;;14.25;4.05;;;;;;;4.95;100.00;101808.50;5110506;28;20419;-62
2023/03/05 05:36:13;;;;;;;11.30;3.75;;;;;;;4.93;100.00;101803.31;5104796;28;20476;-63
2023/03/05 05:38:42;;;;;;;10.45;3.80;;;;;;;4.92;100.00;101812.44;5094968;28;20059;-60
2023/03/05 05:41:13;;;;;;;14.30;4.20;;;;;;;4.90;100.00;101804.53;5107565;27;20063;-62
2023/03/05 05:43:40;;;;;;;13.40;4.13;;;;;;;4.89;100.00;101807.47;5108529;27;20048;-63
2023/03/05 05:46:11;;;;;;;10.27;3.58;;;;;;;4.88;100.00;101800.38;5111956;28;20051;-61
2023/03/05 05:48:40;;;;;;;13.20;3.92;;;;;;;4.77;100.00;101801.84;5115652;28;20039;-61
2023/03/05 05:51:13;;;;;;;16.35;4.40;;;;;;;4.69;100.00;101796.63;5076202;28;20414;-60
2023/03/05 05:53:41;;;;;;;13.27;4.32;;;;;;;4.64;100.00;101799.94;5107866;28;20054;-62
2023/03/05 05:56:10;;;;;;;14.95;4.40;;;;;;;4.60;100.00;101798.69;5103674;28;20058;-61
2023/03/05 05:58:39;;;;;;;14.02;4.90;;;;;;;4.60;100.00;101793.28;5094923;28;20127;-61
2023/03/05 06:01:25;;;;;;;12.82;4.18;;;;;;;4.67;100.00;101796.00;5098038;28;20066;-62
2023/03/05 06:03:53;;;;;;;17.15;4.85;;;;;;;4.68;100.00;101790.38;5114952;28;20490;-62
2023/03/05 06:06:22;;;;;;;16.98;5.25;;;;;;;4.72;100.00;101793.53;5111246;28;20050;-63
2023/03/05 06:08:50;;;;;;;12.40;4.80;;;;;;;4.73;100.00;101787.06;5115277;28;20048;-62
2023/03/05 06:11:19;;;;;;;16.95;4.70;;;;;;;4.74;100.00;101785.19;5113660;28;20392;-63
2023/03/05 06:13:47;;;;;;;14.60;5.47;;;;;;;4.70;100.00;101793.72;5114361;28;20051;-62
2023/03/05 06:16:22;;;;;;;14.20;5.63;;;;;;;4.67;100.00;101785.22;5104448;27;20044;-62
2023/03/05 06:18:51;;;;;;;15.38;5.05;;;;;;;4.65;100.00;101781.88;5096397;28;20043;-60
2023/03/05 06:21:20;;;;;;;13.25;5.38;;;;;;;4.65;100.00;101779.19;5096522;28;20384;-62
2023/03/05 06:23:48;;;;;;;19.80;5.57;;;;;;;4.64;100.00;101783.75;5096335;28;20096;-64
2023/03/05 06:26:19;;;;;;;13.57;5.25;;;;;;;4.63;100.00;101779.38;5085869;28;20523;-62
2023/03/05 06:28:47;;;;;;;14.05;5.68;;;;;;;4.62;100.00;101779.59;5113307;28;20051;-62
2023/03/05 06:31:18;;;;;;;13.13;5.53;;;;;;;4.60;100.00;101776.28;5113744;28;20054;-63
2023/03/05 06:33:45;;;;;;;15.18;5.40;;;;;;;4.60;100.00;101777.09;5114322;28;20384;-62
2023/03/05 06:36:15;;;;;;;11.18;4.78;;;;;;;4.64;100.00;101774.81;5097976;28;20075;-61
2023/03/05 06:38:43;;;;;;;16.00;5.63;;;;;;;4.67;100.00;101769.84;5091629;28;20051;-62
2023/03/05 06:41:17;;;;;;;12.18;4.95;;;;;;;4.67;100.00;101772.53;5096608;28;20043;-64
2023/03/05 06:43:45;;;;;;;10.93;4.68;;;;;;;4.72;100.00;101769.22;5099462;28;20101;-65
2023/03/05 06:46:38;;;;;;;12.27;4.78;;;;;;;4.77;100.00;101776.72;5094882;28;20098;-62
2023/03/05 06:49:07;;;;;;;12.85;5.30;;;;;;;4.72;100.00;101779.19;5100054;27;20078;-61
2023/03/05 06:51:37;;;;;;;12.93;5.43;;;;;;;4.70;100.00;101777.53;5113702;28;20052;-61
2023/03/05 06:54:13;;;;;;;13.63;5.40;;;;;;;4.70;100.00;101774.81;5103164;28;20052;-61
2023/03/05 06:56:43;;;;;;;11.43;4.82;;;;;;;4.70;100.00;101782.09;5113296;28;20054;-59
2023/03/05 06:59:12;;;;;;;12.77;4.93;;;;;;;4.68;100.00;101774.19;5103921;27;20445;-64
2023/03/05 07:01:40;;;;;;;11.23;4.95;;;;;;;4.67;100.00;101777.94;5071490;28;20062;-61
2023/03/05 07:04:07;;;;;;;14.65;5.10;;;;;;;4.65;100.00;101774.59;5093425;28;20093;-61
2023/03/05 07:06:41;;;;;;;10.95;4.53;;;;;;;4.66;100.00;101778.13;5097240;28;20134;-61
2023/03/05 07:09:12;;;;;;;12.43;4.93;;;;;;;4.68;100.00;101767.97;5112083;28;20087;-64
2023/03/05 07:11:40;;;;;;;10.27;4.57;;;;;;;4.68;100.00;101771.50;5111826;28;20040;-62
2023/03/05 07:14:07;;;;;;;14.98;5.13;;;;;;;4.68;100.00;101771.50;5096466;28;20067;-62
2023/03/05 07:16:35;;;;;;;17.15;5.43;;;;;;;4.68;100.00;101779.59;5100608;28;20071;-63
2023/03/05 07:19:06;;;;;;;11.80;4.82;;;;;;;4.69;100.00;101772.34;5105939;28;20047;-63
2023/03/05 07:21:34;;;;;;;15.95;5.30;;;;;;;4.69;100.00;101767.78;5105063;28;20051;-63
2023/03/05 07:24:06;;;;;;;12.15;5.28;;;;;;;4.68;100.00;101765.25;5092882;28;20115;-61
2023/03/05 07:26:34;;;;;;;13.40;5.47;;;;;;;4.61;100.00;101767.94;5103364;28;20103;-62
2023/03/05 07:29:02;;;;;;;12.18;5.60;;;;;;;4.61;100.00;101762.56;5105196;28;20376;-63
2023/03/05 07:31:30;;;;;;;13.60;6.28;;;;;;;4.59;100.00;101759.22;5123614;28;20043;-60
2023/03/05 07:34:00;;;;;;;14.77;7.63;;;;;;;4.56;100.00;101751.53;5134647;27;20055;-62
2023/03/05 07:36:29;;;;;;;11.10;5.13;;;;;;;4.58;100.00;101752.16;5100174;28;20066;-61
2023/03/05 07:38:57;;;;;;;12.63;4.80;;;;;;;4.55;100.00;101758.00;5093524;28;20077;-64
2023/03/05 07:41:24;;;;;;;11.20;4.90;;;;;;;4.53;100.00;101757.34;5104071;28;20054;-64
2023/03/05 07:43:55;;;;;;;13.27;5.18;;;;;;;4.54;100.00;101758.19;5113526;28;20050;-62
2023/03/05 07:46:25;;;;;;;10.50;4.93;;;;;;;4.55;100.00;101752.59;5112295;28;20071;-63
2023/03/05 07:48:54;;;;;;;13.45;5.00;;;;;;;4.57;100.00;101755.91;5108219;28;20445;-62
2023/03/05 07:51:22;;;;;;;13.30;5.35;;;;;;;4.64;100.00;101761.31;5094680;28;20051;-62
2023/03/05 07:53:51;;;;;;;9.85;4.47;;;;;;;4.67;100.00;101753.66;5095492;28;20572;-62
2023/03/05 07:56:30;;;;;;;10.70;4.45;;;;;;;4.72;100.00;101765.69;5111461;28;20071;-63
2023/03/05 07:59:06;;;;;;;9.52;4.40;;;;;;;4.72;100.00;101749.50;5111199;28;20138;-63
2023/03/05 08:01:34;;;;;;;9.77;4.40;;;;;;;4.74;100.00;101756.34;5076503;28;20496;-62
2023/03/05 08:04:04;;;;;;;10.82;4.63;;;;;;;4.74;100.00;101755.50;5114359;28;20044;-62
2023/03/05 08:06:32;;;;;;;12.48;4.55;;;;;;;4.72;100.00;101758.44;5112668;28;20067;-63
2023/03/05 08:09:03;;;;;;;10.63;4.65;;;;;;;4.72;100.00;101746.81;5112589;28;20371;-63
2023/03/05 08:11:31;;;;;;;10.55;4.60;;;;;;;4.74;100.00;101744.69;5096710;28;20051;-65
2023/03/05 08:13:59;;;;;;;14.48;5.13;;;;;;;4.79;100.00;101747.63;5093580;28;20422;-62
2023/03/05 08:16:27;;;;;;;13.23;4.60;;;;;;;4.80;100.00;101749.28;5093233;28;20071;-63
2023/03/05 08:18:56;;;;;;;10.35;4.78;;;;;;;4.80;100.00;101744.72;5091732;28;20073;-62
2023/03/05 08:21:28;;;;;;;11.18;4.60;;;;;;;4.79;100.00;101742.25;5075379;28;20438;-63
2023/03/05 08:23:56;;;;;;;10.80;4.53;;;;;;;4.82;100.00;101731.03;5091584;28;20048;-64
2023/03/05 08:26:27;;;;;;;8.70;4.40;;;;;;;4.86;100.00;101737.69;5092844;28;20044;-63
2023/03/05 08:28:55;;;;;;;12.15;4.60;;;;;;;4.87;100.00;101733.94;5092645;28;20048;-63
2023/03/05 08:31:24;;;;;;;7.88;4.38;;;;;;;4.88;100.00;101733.72;5091978;28;20487;-62
2023/03/05 08:33:53;;;;;;;11.70;4.78;;;;;;;4.88;100.00;101732.88;5091928;28;20059;-63
2023/03/05 08:36:21;;;;;;;9.48;4.70;;;;;;;4.92;100.00;101734.13;5059507;28;20048;-64
2023/03/05 08:38:49;;;;;;;10.57;4.63;;;;;;;4.95;100.00;101725.59;5078707;28;20052;-64
2023/03/05 08:41:18;;;;;;;11.07;4.63;;;;;;;4.91;100.00;101724.38;5094128;28;20040;-64
2023/03/05 08:43:46;;;;;;;9.52;4.40;;;;;;;4.87;100.00;101723.94;5096700;28;20052;-62
2023/03/05 08:46:14;;;;;;;9.10;4.55;;;;;;;4.89;100.00;101715.66;5080463;28;20077;-63
2023/03/05 08:48:42;;;;;;;7.05;4.00;;;;;;;4.94;100.00;101718.56;5078759;28;20043;-63
2023/03/05 08:51:12;;;;;;;10.65;4.38;;;;;;;4.90;100.00;101711.91;5096640;28;20059;-64
2023/03/05 08:53:40;;;;;;;10.13;4.22;;;;;;;4.92;100.00;101715.22;5078128;28;20052;-63
2023/03/05 08:56:09;;;;;;;8.70;4.38;;;;;;;4.95;100.00;101703.19;5095013;28;20040;-64
2023/03/05 08:58:37;;;;;;;8.98;4.22;;;;;;;4.98;100.00;101705.44;5110610;28;20044;-64
2023/03/05 09:01:05;;;;;;;8.25;3.90;;;;;;;5.01;100.00;101707.75;5115371;28;20100;-62
2023/03/05 09:03:33;;;;;;;11.10;4.22;;;;;;;5.01;100.00;101705.88;5096442;28;20047;-63
2023/03/05 09:06:07;;;;;;;12.15;4.40;;;;;;;5.03;100.00;101701.09;5116399;28;20484;-62
2023/03/05 09:08:35;;;;;;;8.63;3.92;;;;;;;5.04;100.00;101697.34;5115872;28;20462;-62
2023/03/05 09:11:05;;;;;;;8.15;3.85;;;;;;;5.05;100.00;101699.03;5115931;28;20058;-63
2023/03/05 09:13:33;;;;;;;8.23;3.75;;;;;;;5.08;100.00;101695.91;5116513;28;20046;-64
2023/03/05 09:16:03;;;;;;;12.48;4.13;;;;;;;5.06;100.00;101700.69;5114602;28;20050;-63
2023/03/05 09:18:31;;;;;;;7.22;3.85;;;;;;;5.04;100.00;101697.34;5116140;28;20400;-63
2023/03/05 09:21:04;;;;;;;7.00;3.67;;;;;;;5.05;100.00;101690.91;5116147;28;20454;-63
2023/03/05 09:23:32;;;;;;;12.77;4.15;;;;;;;5.06;100.00;101689.03;5116615;28;20055;-62
2023/03/05 09:26:00;;;;;;;6.93;3.38;;;;;;;5.07;100.00;101686.13;5096132;28;20398;-64
2023/03/05 09:28:28;;;;;;;11.10;3.17;;;;;;;5.09;100.00;101681.34;5115676;28;20044;-63
2023/03/05 09:30:55;;;;;;;6.18;3.17;;;;;;;5.10;100.00;101679.50;5114818;28;20502;-63
2023/03/05 09:33:23;;;;;;;6.90;3.40;;;;;;;5.10;100.00;101674.91;5115666;28;20031;-64
2023/03/05 09:35:50;;;;;;;12.48;3.42;;;;;;;5.08;100.00;101685.09;5098985;28;20044;-64
2023/03/05 09:38:19;;;;;;;6.72;3.10;;;;;;;5.03;100.00;101673.28;5095176;28;20123;-63
2023/03/05 09:41:02;;;;;;;10.85;3.33;;;;;;;5.01;100.00;101678.03;5095389;28;20082;-63
2023/03/05 09:43:39;;;;;;;5.22;2.60;;;;;;;5.00;100.00;101671.78;5095812;28;20079;-64
2023/03/05 09:46:37;;;;;;;5.07;2.60;;;;;;;5.01;100.00;101676.16;5114120;28;20043;-64
2023/03/05 09:49:29;;;;;;;9.05;2.83;;;;;;;4.99;100.00;101678.25;5115791;27;20434;-62
2023/03/05 09:52:06;;;;;;;6.20;2.60;;;;;;;4.97;100.00;101669.50;5115614;28;20396;-64
2023/03/05 09:54:39;;;;;;;7.57;2.85;;;;;;;4.97;100.00;101677.63;5107311;28;20047;-63
2023/03/05 09:57:21;;;;;;;7.00;2.58;;;;;;;4.99;100.00;101667.44;5094033;28;20043;-62
2023/03/05 10:00:06;;;;;;;7.50;2.58;;;;;;;5.02;100.00;101672.41;5094104;28;20044;-64
2023/03/05 10:02:52;;;;;;;5.35;2.50;;;;;;;5.05;100.00;101672.00;5093903;28;20044;-63
2023/03/05 10:05:27;;;;;;;5.30;2.15;;;;;;;5.06;100.00;101662.84;5093664;28;20055;-62
2023/03/05 10:07:59;;;;;;;5.47;2.20;;;;;;;5.08;100.00;101666.19;5095848;28;20044;-63
2023/03/05 10:10:41;;;;;;;5.22;2.33;;;;;;;5.09;100.00;101661.59;5094709;28;20039;-63
2023/03/05 10:13:23;;;;;;;6.25;2.50;;;;;;;5.08;100.00;101666.19;5094557;28;20044;-63
2023/03/05 10:16:10;;;;;;;3.97;1.92;;;;;;;5.12;100.00;101651.22;5113134;28;20475;-64
2023/03/05 10:18:58;;;;;;;3.30;2.08;;;;;;;5.18;100.00;101654.13;5114047;28;20122;-63
2023/03/05 10:21:50;;;;;;;5.03;2.42;;;;;;;5.18;100.00;101648.72;5114260;28;20039;-63
2023/03/05 10:24:42;;;;;;;5.78;2.40;;;;;;;5.17;100.00;101642.50;5115495;28;20054;-62
2023/03/05 10:27:33;;;;;;;6.32;2.75;;;;;;;5.16;100.00;101648.91;5113577;28;20539;-65
2023/03/05 10:30:12;;;;;;;5.75;2.95;;;;;;;5.07;100.00;101661.81;5113536;28;20070;-62
2023/03/05 10:32:45;;;;;;;6.47;2.17;;;;;;;4.94;100.00;101652.91;5112873;28;20063;-62
2023/03/05 10:35:34;;;;;;;9.50;2.20;;;;;;;4.87;100.00;101652.91;5113686;28;20043;-62
2023/03/05 10:38:16;;;;;;;5.45;2.20;;;;;;;4.80;100.00;101646.69;5114343;28;20075;-62
2023/03/05 10:40:51;;;;;;;4.85;2.17;;;;;;;4.71;100.00;101648.78;5115181;28;20048;-62
2023/03/05 10:43:30;;;;;;;4.85;2.20;;;;;;;4.72;100.00;101639.66;5096419;28;20051;-63
2023/03/05 10:45:58;;;;;;;4.68;2.20;;;;;;;4.79;100.00;101642.34;5111727;28;20071;-63
2023/03/05 10:48:27;;;;;;;3.80;1.95;;;;;;;4.79;100.00;101640.47;5113245;28;20066;-62
2023/03/05 10:51:01;;;;;;;3.88;2.10;;;;;;;4.80;100.00;101631.31;5096872;28;20051;-62
2023/03/05 10:53:34;;;;;;;6.97;2.42;;;;;;;4.88;100.00;101628.41;5096591;28;20051;-64
2023/03/05 10:56:03;;;;;;;5.93;2.00;;;;;;;4.94;100.00;101617.81;5092987;28;20048;-63
2023/03/05 10:58:31;;;;;;;5.35;2.50;;;;;;;4.97;100.00;101615.50;5092964;28;20103;-63
2023/03/05 11:01:05;;;;;;;4.55;2.20;;;;;;;5.00;100.00;101620.47;5092656;28;20051;-63
2023/03/05 11:03:47;;;;;;;4.60;1.80;;;;;;;5.07;100.00;101610.47;5092887;28;20075;-63
2023/03/05 11:06:25;;;;;;;7.88;2.50;;;;;;;5.15;100.00;101611.28;5111563;28;20062;-63
2023/03/05 11:08:53;;;;;;;6.60;2.50;;;;;;;5.19;100.00;101607.97;5117563;28;20422;-63
2023/03/05 11:11:22;;;;;;;4.95;2.33;;;;;;;5.24;100.00;101607.31;5116541;28;20043;-62
2023/03/05 11:13:58;;;;;;;3.80;2.20;;;;;;;5.26;100.00;101602.53;5099956;28;20866;-63
2023/03/05 11:16:28;;;;;;;6.30;2.42;;;;;;;5.28;100.00;101597.75;5096171;28;20075;-64
2023/03/05 11:19:19;;;;;;;5.10;2.40;;;;;;;5.32;100.00;101596.31;5096431;28;20048;-61
2023/03/05 11:22:13;;;;;;;8.07;2.78;;;;;;;5.34;100.00;101599.63;5096286;28;20122;-63
2023/03/05 11:24:41;;;;;;;7.40;2.78;;;;;;;5.30;100.00;101591.09;5100425;28;20115;-62
2023/03/05 11:27:23;;;;;;;4.30;2.40;;;;;;;5.34;100.00;101578.81;5097960;28;20047;-63
2023/03/05 11:29:50;;;;;;;3.58;2.38;;;;;;;5.39;100.00;101580.88;5094133;28;20507;-63
2023/03/05 11:32:24;;;;;;;3.53;2.42;;;;;;;5.42;100.00;101568.81;5093649;28;20052;-63
2023/03/05 11:34:53;;;;;;;4.38;2.70;;;;;;;5.43;100.00;101573.97;5093888;28;20535;-64
2023/03/05 11:37:28;;;;;;;3.70;2.30;;;;;;;5.41;100.00;101568.00;5092045;28;20079;-64
2023/03/05 11:40:19;;;;;;;7.00;2.67;;;;;;;5.40;100.00;101571.72;5093370;28;20484;-63